sensor_id;sensor_type;location;lat;lon;timestamp;P1;durP1;ratioP1;P2;durP2;ratioP2
40611;SDS011;26317;44.894;20.286;2024-03-08T00:00:17;19.13;;;17.15;;
40611;SDS011;26317;44.894;20.286;2024-03-08T00:03:04;18.02;;;16.23;;
40611;SDS011;26317;44.894;20.286;2024-03-08T00:05:40;18.95;;;17.05;;
40611;SDS011;26317;44.894;20.286;2024-03-08T00:08:22;20.45;;;18.25;;
40611;SDS011;26317;44.894;20.286;2024-03-08T00:11:11;19.85;;;17.75;;
40611;SDS011;26317;44.894;20.286;2024-03-08T00:13:50;19.75;;;17.73;;
40611;SDS011;26317;44.894;20.286;2024-03-08T00:16:30;20.50;;;18.40;;
40611;SDS011;26317;44.894;20.286;2024-03-08T00:19:11;19.23;;;17.33;;
40611;SDS011;26317;44.894;20.286;2024-03-08T00:21:53;21.00;;;18.85;;
40611;SDS011;26317;44.894;20.286;2024-03-08T00:24:42;20.98;;;18.83;;
40611;SDS011;26317;44.894;20.286;2024-03-08T00:27:29;20.40;;;18.25;;
40611;SDS011;26317;44.894;20.286;2024-03-08T00:30:14;21.85;;;19.65;;
40611;SDS011;26317;44.894;20.286;2024-03-08T00:32:57;22.83;;;20.42;;
40611;SDS011;26317;44.894;20.286;2024-03-08T00:35:37;25.58;;;22.98;;
40611;SDS011;26317;44.894;20.286;2024-03-08T00:38:14;25.23;;;22.60;;
40611;SDS011;26317;44.894;20.286;2024-03-08T00:40:55;25.23;;;22.55;;
40611;SDS011;26317;44.894;20.286;2024-03-08T00:43:50;23.95;;;21.55;;
40611;SDS011;26317;44.894;20.286;2024-03-08T00:46:30;24.27;;;21.77;;
40611;SDS011;26317;44.894;20.286;2024-03-08T00:49:18;21.00;;;18.80;;
40611;SDS011;26317;44.894;20.286;2024-03-08T00:52:06;20.77;;;18.58;;
40611;SDS011;26317;44.894;20.286;2024-03-08T00:54:58;20.95;;;18.00;;
40611;SDS011;26317;44.894;20.286;2024-03-08T00:57:55;19.08;;;17.17;;
40611;SDS011;26317;44.894;20.286;2024-03-08T01:00:35;20.83;;;18.73;;
40611;SDS011;26317;44.894;20.286;2024-03-08T01:03:19;20.85;;;18.67;;
40611;SDS011;26317;44.894;20.286;2024-03-08T01:06:08;21.85;;;19.55;;
40611;SDS011;26317;44.894;20.286;2024-03-08T01:08:49;20.13;;;18.15;;
40611;SDS011;26317;44.894;20.286;2024-03-08T01:11:34;19.65;;;17.75;;
40611;SDS011;26317;44.894;20.286;2024-03-08T01:14:11;21.23;;;18.13;;
40611;SDS011;26317;44.894;20.286;2024-03-08T01:17:12;19.08;;;17.17;;
40611;SDS011;26317;44.894;20.286;2024-03-08T01:19:51;21.02;;;18.80;;
40611;SDS011;26317;44.894;20.286;2024-03-08T01:22:36;20.35;;;18.40;;
40611;SDS011;26317;44.894;20.286;2024-03-08T01:25:17;20.88;;;18.85;;
40611;SDS011;26317;44.894;20.286;2024-03-08T01:28:02;21.27;;;19.08;;
40611;SDS011;26317;44.894;20.286;2024-03-08T01:30:45;20.40;;;18.33;;
40611;SDS011;26317;44.894;20.286;2024-03-08T01:33:28;20.20;;;18.20;;
40611;SDS011;26317;44.894;20.286;2024-03-08T01:36:02;19.92;;;17.92;;
40611;SDS011;26317;44.894;20.286;2024-03-08T01:38:56;19.85;;;17.90;;
40611;SDS011;26317;44.894;20.286;2024-03-08T01:41:31;20.02;;;18.10;;
40611;SDS011;26317;44.894;20.286;2024-03-08T01:44:32;19.40;;;17.50;;
40611;SDS011;26317;44.894;20.286;2024-03-08T01:49:54;20.23;;;18.13;;
40611;SDS011;26317;44.894;20.286;2024-03-08T01:52:37;19.95;;;17.92;;
40611;SDS011;26317;44.894;20.286;2024-03-08T01:55:34;18.90;;;17.10;;
40611;SDS011;26317;44.894;20.286;2024-03-08T01:58:17;18.58;;;16.85;;
40611;SDS011;26317;44.894;20.286;2024-03-08T02:00:56;18.42;;;16.52;;
40611;SDS011;26317;44.894;20.286;2024-03-08T02:03:36;18.33;;;16.05;;
40611;SDS011;26317;44.894;20.286;2024-03-08T02:09:02;17.05;;;15.35;;
40611;SDS011;26317;44.894;20.286;2024-03-08T02:11:51;17.27;;;15.48;;
40611;SDS011;26317;44.894;20.286;2024-03-08T02:14:36;16.33;;;14.30;;
40611;SDS011;26317;44.894;20.286;2024-03-08T02:17:13;16.02;;;14.48;;
40611;SDS011;26317;44.894;20.286;2024-03-08T02:19:56;15.32;;;13.77;;
40611;SDS011;26317;44.894;20.286;2024-03-08T02:22:34;16.30;;;14.60;;
40611;SDS011;26317;44.894;20.286;2024-03-08T02:25:22;16.50;;;14.85;;
40611;SDS011;26317;44.894;20.286;2024-03-08T02:28:05;16.17;;;14.50;;
40611;SDS011;26317;44.894;20.286;2024-03-08T02:30:53;15.65;;;14.18;;
40611;SDS011;26317;44.894;20.286;2024-03-08T02:33:27;15.38;;;13.88;;
40611;SDS011;26317;44.894;20.286;2024-03-08T02:36:20;15.70;;;13.80;;
40611;SDS011;26317;44.894;20.286;2024-03-08T02:39:07;15.77;;;14.18;;
40611;SDS011;26317;44.894;20.286;2024-03-08T02:41:51;14.63;;;13.23;;
40611;SDS011;26317;44.894;20.286;2024-03-08T02:44:34;15.88;;;14.27;;
40611;SDS011;26317;44.894;20.286;2024-03-08T02:47:18;14.55;;;13.15;;
40611;SDS011;26317;44.894;20.286;2024-03-08T02:49:59;13.93;;;12.55;;
40611;SDS011;26317;44.894;20.286;2024-03-08T02:52:37;14.65;;;13.15;;
40611;SDS011;26317;44.894;20.286;2024-03-08T02:55:19;14.45;;;13.05;;
40611;SDS011;26317;44.894;20.286;2024-03-08T02:58:04;15.65;;;14.15;;
40611;SDS011;26317;44.894;20.286;2024-03-08T03:00:40;15.63;;;13.73;;
40611;SDS011;26317;44.894;20.286;2024-03-08T03:03:24;14.35;;;12.95;;
40611;SDS011;26317;44.894;20.286;2024-03-08T03:06:03;14.13;;;12.73;;
40611;SDS011;26317;44.894;20.286;2024-03-08T03:08:46;15.45;;;13.88;;
40611;SDS011;26317;44.894;20.286;2024-03-08T03:11:43;14.25;;;12.75;;
40611;SDS011;26317;44.894;20.286;2024-03-08T03:14:25;15.40;;;13.38;;
40611;SDS011;26317;44.894;20.286;2024-03-08T03:17:04;14.32;;;12.52;;
40611;SDS011;26317;44.894;20.286;2024-03-08T03:19:44;14.18;;;12.70;;
40611;SDS011;26317;44.894;20.286;2024-03-08T03:22:24;15.20;;;13.70;;
40611;SDS011;26317;44.894;20.286;2024-03-08T03:25:03;14.73;;;13.32;;
40611;SDS011;26317;44.894;20.286;2024-03-08T03:28:08;14.25;;;12.82;;
40611;SDS011;26317;44.894;20.286;2024-03-08T03:30:49;14.80;;;13.35;;
40611;SDS011;26317;44.894;20.286;2024-03-08T03:33:38;14.52;;;12.82;;
40611;SDS011;26317;44.894;20.286;2024-03-08T03:36:18;15.48;;;13.65;;
40611;SDS011;26317;44.894;20.286;2024-03-08T03:38:56;15.52;;;14.02;;
40611;SDS011;26317;44.894;20.286;2024-03-08T03:41:42;14.45;;;12.95;;
40611;SDS011;26317;44.894;20.286;2024-03-08T03:44:30;14.77;;;13.40;;
40611;SDS011;26317;44.894;20.286;2024-03-08T03:47:12;16.20;;;14.48;;
40611;SDS011;26317;44.894;20.286;2024-03-08T03:49:53;14.43;;;12.48;;
40611;SDS011;26317;44.894;20.286;2024-03-08T03:52:39;14.88;;;13.40;;
40611;SDS011;26317;44.894;20.286;2024-03-08T03:55:34;16.70;;;13.80;;
40611;SDS011;26317;44.894;20.286;2024-03-08T03:58:09;15.52;;;13.95;;
40611;SDS011;26317;44.894;20.286;2024-03-08T04:00:56;15.63;;;13.90;;
40611;SDS011;26317;44.894;20.286;2024-03-08T04:03:41;14.93;;;13.43;;
40611;SDS011;26317;44.894;20.286;2024-03-08T04:06:15;14.00;;;12.50;;
40611;SDS011;26317;44.894;20.286;2024-03-08T04:08:55;14.73;;;13.23;;
40611;SDS011;26317;44.894;20.286;2024-03-08T04:11:41;15.15;;;13.63;;
40611;SDS011;26317;44.894;20.286;2024-03-08T04:14:18;15.20;;;13.63;;
40611;SDS011;26317;44.894;20.286;2024-03-08T04:17:08;17.52;;;14.77;;
40611;SDS011;26317;44.894;20.286;2024-03-08T04:19:56;15.20;;;13.65;;
40611;SDS011;26317;44.894;20.286;2024-03-08T04:22:39;14.18;;;12.77;;
40611;SDS011;26317;44.894;20.286;2024-03-08T04:25:17;15.75;;;14.15;;
40611;SDS011;26317;44.894;20.286;2024-03-08T04:27:57;15.68;;;14.07;;
40611;SDS011;26317;44.894;20.286;2024-03-08T04:30:37;13.63;;;12.18;;
40611;SDS011;26317;44.894;20.286;2024-03-08T04:33:26;14.85;;;13.20;;
40611;SDS011;26317;44.894;20.286;2024-03-08T04:36:07;14.38;;;12.95;;
40611;SDS011;26317;44.894;20.286;2024-03-08T04:38:51;14.80;;;12.65;;
40611;SDS011;26317;44.894;20.286;2024-03-08T04:41:29;14.05;;;12.65;;
40611;SDS011;26317;44.894;20.286;2024-03-08T04:44:11;13.98;;;12.60;;
40611;SDS011;26317;44.894;20.286;2024-03-08T04:46:46;14.05;;;12.63;;
40611;SDS011;26317;44.894;20.286;2024-03-08T04:49:38;13.65;;;11.73;;
40611;SDS011;26317;44.894;20.286;2024-03-08T04:52:18;12.77;;;11.48;;
40611;SDS011;26317;44.894;20.286;2024-03-08T04:57:44;13.38;;;10.43;;
40611;SDS011;26317;44.894;20.286;2024-03-08T05:00:25;12.38;;;10.40;;
40611;SDS011;26317;44.894;20.286;2024-03-08T05:03:07;11.80;;;10.60;;
40611;SDS011;26317;44.894;20.286;2024-03-08T05:05:57;12.70;;;11.50;;
40611;SDS011;26317;44.894;20.286;2024-03-08T05:08:44;11.77;;;10.55;;
40611;SDS011;26317;44.894;20.286;2024-03-08T05:11:24;13.88;;;10.80;;
40611;SDS011;26317;44.894;20.286;2024-03-08T05:14:07;12.98;;;11.50;;
40611;SDS011;26317;44.894;20.286;2024-03-08T05:16:50;12.32;;;10.93;;
40611;SDS011;26317;44.894;20.286;2024-03-08T05:19:29;14.18;;;11.50;;
40611;SDS011;26317;44.894;20.286;2024-03-08T05:22:13;12.30;;;11.05;;
40611;SDS011;26317;44.894;20.286;2024-03-08T05:25:00;14.02;;;12.52;;
40611;SDS011;26317;44.894;20.286;2024-03-08T05:27:49;14.70;;;12.10;;
40611;SDS011;26317;44.894;20.286;2024-03-08T05:30:22;12.80;;;11.48;;
40611;SDS011;26317;44.894;20.286;2024-03-08T05:33:15;14.05;;;12.65;;
40611;SDS011;26317;44.894;20.286;2024-03-08T05:35:55;14.30;;;12.63;;
40611;SDS011;26317;44.894;20.286;2024-03-08T05:38:43;12.25;;;11.05;;
40611;SDS011;26317;44.894;20.286;2024-03-08T05:41:33;14.25;;;12.25;;
40611;SDS011;26317;44.894;20.286;2024-03-08T05:44:08;15.18;;;12.35;;
40611;SDS011;26317;44.894;20.286;2024-03-08T05:46:53;14.48;;;12.98;;
40611;SDS011;26317;44.894;20.286;2024-03-08T05:49:34;13.77;;;12.30;;
40611;SDS011;26317;44.894;20.286;2024-03-08T05:52:24;12.32;;;11.23;;
40611;SDS011;26317;44.894;20.286;2024-03-08T05:55:25;14.52;;;12.63;;
40611;SDS011;26317;44.894;20.286;2024-03-08T05:58:06;13.07;;;11.30;;
40611;SDS011;26317;44.894;20.286;2024-03-08T06:00:44;12.95;;;11.65;;
40611;SDS011;26317;44.894;20.286;2024-03-08T06:03:23;12.93;;;11.73;;
40611;SDS011;26317;44.894;20.286;2024-03-08T06:06:01;12.52;;;11.32;;
40611;SDS011;26317;44.894;20.286;2024-03-08T06:08:47;13.10;;;11.52;;
40611;SDS011;26317;44.894;20.286;2024-03-08T06:11:39;12.57;;;11.27;;
40611;SDS011;26317;44.894;20.286;2024-03-08T06:14:14;12.98;;;11.65;;
40611;SDS011;26317;44.894;20.286;2024-03-08T06:17:02;13.57;;;11.45;;
40611;SDS011;26317;44.894;20.286;2024-03-08T06:19:47;16.88;;;12.13;;
40611;SDS011;26317;44.894;20.286;2024-03-08T06:22:22;12.85;;;11.65;;
40611;SDS011;26317;44.894;20.286;2024-03-08T06:25:02;13.05;;;11.20;;
40611;SDS011;26317;44.894;20.286;2024-03-08T06:27:50;14.07;;;11.38;;
40611;SDS011;26317;44.894;20.286;2024-03-08T06:30:26;13.35;;;11.77;;
40611;SDS011;26317;44.894;20.286;2024-03-08T06:33:02;12.85;;;11.35;;
40611;SDS011;26317;44.894;20.286;2024-03-08T06:35:45;16.17;;;12.40;;
40611;SDS011;26317;44.894;20.286;2024-03-08T06:38:27;14.45;;;11.55;;
40611;SDS011;26317;44.894;20.286;2024-03-08T06:41:15;14.63;;;12.32;;
40611;SDS011;26317;44.894;20.286;2024-03-08T06:44:21;14.32;;;11.77;;
40611;SDS011;26317;44.894;20.286;2024-03-08T06:46:59;16.42;;;12.65;;
40611;SDS011;26317;44.894;20.286;2024-03-08T06:49:40;13.88;;;12.23;;
40611;SDS011;26317;44.894;20.286;2024-03-08T06:52:18;14.68;;;13.07;;
40611;SDS011;26317;44.894;20.286;2024-03-08T06:55:01;17.15;;;13.32;;
40611;SDS011;26317;44.894;20.286;2024-03-08T06:57:45;17.08;;;13.38;;
40611;SDS011;26317;44.894;20.286;2024-03-08T20:28:56;38.30;;;28.58;;
40611;SDS011;26317;44.894;20.286;2024-03-08T20:31:44;33.42;;;26.83;;
40611;SDS011;26317;44.894;20.286;2024-03-08T20:34:24;35.33;;;25.73;;
40611;SDS011;26317;44.894;20.286;2024-03-08T20:37:10;36.47;;;26.75;;
40611;SDS011;26317;44.894;20.286;2024-03-08T20:39:49;33.42;;;25.05;;
40611;SDS011;26317;44.894;20.286;2024-03-08T20:42:28;33.40;;;26.48;;
40611;SDS011;26317;44.894;20.286;2024-03-08T20:45:09;30.83;;;24.83;;
40611;SDS011;26317;44.894;20.286;2024-03-08T20:47:50;31.50;;;25.35;;
40611;SDS011;26317;44.894;20.286;2024-03-08T20:50:38;36.00;;;27.55;;
40611;SDS011;26317;44.894;20.286;2024-03-08T20:53:42;33.20;;;26.98;;
40611;SDS011;26317;44.894;20.286;2024-03-08T20:56:22;33.78;;;27.58;;
40611;SDS011;26317;44.894;20.286;2024-03-08T20:59:11;33.85;;;26.40;;
40611;SDS011;26317;44.894;20.286;2024-03-08T21:02:05;35.72;;;27.30;;
40611;SDS011;26317;44.894;20.286;2024-03-08T21:04:50;33.63;;;26.58;;
40611;SDS011;26317;44.894;20.286;2024-03-08T21:07:29;38.75;;;29.00;;
40611;SDS011;26317;44.894;20.286;2024-03-08T21:10:23;38.83;;;28.60;;
40611;SDS011;26317;44.894;20.286;2024-03-08T21:13:05;33.72;;;27.73;;
40611;SDS011;26317;44.894;20.286;2024-03-08T21:15:48;39.33;;;29.95;;
40611;SDS011;26317;44.894;20.286;2024-03-08T21:18:33;38.30;;;29.17;;
40611;SDS011;26317;44.894;20.286;2024-03-08T21:21:16;44.13;;;30.10;;
40611;SDS011;26317;44.894;20.286;2024-03-08T21:24:00;41.97;;;30.95;;
40611;SDS011;26317;44.894;20.286;2024-03-08T21:26:51;44.78;;;32.85;;
40611;SDS011;26317;44.894;20.286;2024-03-08T21:29:30;39.50;;;30.30;;
40611;SDS011;26317;44.894;20.286;2024-03-08T21:32:24;38.13;;;29.10;;
40611;SDS011;26317;44.894;20.286;2024-03-08T21:35:15;37.00;;;28.80;;
40611;SDS011;26317;44.894;20.286;2024-03-08T21:37:57;36.90;;;26.90;;
40611;SDS011;26317;44.894;20.286;2024-03-08T21:40:33;36.88;;;27.52;;
40611;SDS011;26317;44.894;20.286;2024-03-08T21:43:32;36.05;;;29.15;;
40611;SDS011;26317;44.894;20.286;2024-03-08T21:46:10;34.65;;;26.50;;
40611;SDS011;26317;44.894;20.286;2024-03-08T21:49:06;33.22;;;26.95;;
40611;SDS011;26317;44.894;20.286;2024-03-08T21:51:49;39.20;;;29.90;;
40611;SDS011;26317;44.894;20.286;2024-03-08T21:54:36;34.60;;;27.45;;
40611;SDS011;26317;44.894;20.286;2024-03-08T21:57:15;33.80;;;27.40;;
40611;SDS011;26317;44.894;20.286;2024-03-08T21:59:54;33.58;;;26.92;;
40611;SDS011;26317;44.894;20.286;2024-03-08T22:02:54;33.85;;;26.48;;
40611;SDS011;26317;44.894;20.286;2024-03-08T22:05:52;34.13;;;26.88;;
40611;SDS011;26317;44.894;20.286;2024-03-08T22:11:41;35.58;;;26.63;;
40611;SDS011;26317;44.894;20.286;2024-03-08T22:14:20;37.58;;;27.70;;
40611;SDS011;26317;44.894;20.286;2024-03-08T22:16:56;32.90;;;26.52;;
40611;SDS011;26317;44.894;20.286;2024-03-08T22:19:34;32.88;;;26.58;;
40611;SDS011;26317;44.894;20.286;2024-03-08T22:22:16;32.15;;;25.55;;
40611;SDS011;26317;44.894;20.286;2024-03-08T22:25:02;34.78;;;27.05;;
40611;SDS011;26317;44.894;20.286;2024-03-08T22:27:44;33.97;;;26.35;;
40611;SDS011;26317;44.894;20.286;2024-03-08T22:30:25;36.65;;;26.35;;
40611;SDS011;26317;44.894;20.286;2024-03-08T22:33:04;35.95;;;27.98;;
40611;SDS011;26317;44.894;20.286;2024-03-08T22:35:38;32.97;;;25.65;;
40611;SDS011;26317;44.894;20.286;2024-03-08T22:38:19;35.03;;;27.75;;
40611;SDS011;26317;44.894;20.286;2024-03-08T22:41:06;33.13;;;25.48;;
40611;SDS011;26317;44.894;20.286;2024-03-08T22:43:57;30.58;;;25.88;;
40611;SDS011;26317;44.894;20.286;2024-03-08T22:46:34;39.85;;;26.40;;
40611;SDS011;26317;44.894;20.286;2024-03-08T22:49:23;32.53;;;26.25;;
40611;SDS011;26317;44.894;20.286;2024-03-08T22:52:08;33.03;;;25.88;;
40611;SDS011;26317;44.894;20.286;2024-03-08T22:54:50;33.78;;;25.35;;
40611;SDS011;26317;44.894;20.286;2024-03-08T22:57:43;33.33;;;25.80;;
40611;SDS011;26317;44.894;20.286;2024-03-08T23:00:33;34.17;;;25.77;;
40611;SDS011;26317;44.894;20.286;2024-03-08T23:03:32;34.05;;;26.25;;
40611;SDS011;26317;44.894;20.286;2024-03-08T23:06:15;30.83;;;24.98;;
40611;SDS011;26317;44.894;20.286;2024-03-08T23:08:56;34.63;;;26.60;;
40611;SDS011;26317;44.894;20.286;2024-03-08T23:11:49;31.30;;;26.02;;
40611;SDS011;26317;44.894;20.286;2024-03-08T23:14:32;32.70;;;25.92;;
40611;SDS011;26317;44.894;20.286;2024-03-08T23:17:06;33.08;;;25.65;;
40611;SDS011;26317;44.894;20.286;2024-03-08T23:19:43;33.42;;;25.90;;
40611;SDS011;26317;44.894;20.286;2024-03-08T23:22:31;34.67;;;27.17;;
40611;SDS011;26317;44.894;20.286;2024-03-08T23:25:19;32.22;;;25.23;;
40611;SDS011;26317;44.894;20.286;2024-03-08T23:28:05;32.50;;;25.02;;
40611;SDS011;26317;44.894;20.286;2024-03-08T23:31:05;31.95;;;24.60;;
40611;SDS011;26317;44.894;20.286;2024-03-08T23:33:47;29.40;;;23.98;;
40611;SDS011;26317;44.894;20.286;2024-03-08T23:36:27;29.38;;;22.48;;
40611;SDS011;26317;44.894;20.286;2024-03-08T23:39:04;30.05;;;23.75;;
40611;SDS011;26317;44.894;20.286;2024-03-08T23:41:45;31.38;;;23.38;;
40611;SDS011;26317;44.894;20.286;2024-03-08T23:44:27;26.38;;;21.50;;
40611;SDS011;26317;44.894;20.286;2024-03-08T23:47:19;28.88;;;22.83;;
40611;SDS011;26317;44.894;20.286;2024-03-08T23:49:53;29.05;;;22.88;;
40611;SDS011;26317;44.894;20.286;2024-03-08T23:55:18;30.60;;;22.70;;
40611;SDS011;26317;44.894;20.286;2024-03-08T23:57:58;29.70;;;23.13;;
